Time;durP1;ratioP1;P1;durP2;ratioP2;P2;SDS_P1;SDS_P2;PMS_P1;PMS_P2;Temp;Humidity;BMP_temperature;BMP_pressure;BME280_temperature;BME280_humidity;BME280_pressure;Samples;Min_cycle;Max_cycle;Signal;HPM_P1;HPM_P2
2023/03/06 00:00:10;;;;;;;11.98;8.68;;;;;;;;;;5054285;28;20478;-54
2023/03/06 00:02:36;;;;;;;12.98;8.18;;;;;;;;;;5054051;28;20106;-51
2023/03/06 00:05:02;;;;;;;15.68;9.57;;;;;;;;;;5054807;28;20057;-49
2023/03/06 00:07:28;;;;;;;20.33;12.73;;;;;;;;;;5054080;28;20029;-51
2023/03/06 00:09:54;;;;;;;16.02;9.45;;;;;;;;;;5054436;28;20029;-48
2023/03/06 00:12:20;;;;;;;14.98;8.63;;;;;;;;;;5054220;28;20060;-49
2023/03/06 00:14:46;;;;;;;12.82;7.93;;;;;;;;;;5054029;28;20044;-47
2023/03/06 00:17:12;;;;;;;18.42;9.35;;;;;;;;;;5054532;28;20029;-51
2023/03/06 00:19:38;;;;;;;9.23;6.68;;;;;;;;;;5053944;28;20037;-48
2023/03/06 00:22:04;;;;;;;14.38;8.80;;;;;;;;;;5054044;28;20057;-51
2023/03/06 00:24:30;;;;;;;10.23;7.97;;;;;;;;;;5054088;28;20075;-51
2023/03/06 00:26:55;;;;;;;13.00;8.27;;;;;;;;;;5053887;28;20051;-52
2023/03/06 00:29:21;;;;;;;15.95;9.27;;;;;;;;;;5053919;28;20036;-57
2023/03/06 00:31:47;;;;;;;14.63;9.50;;;;;;;;;;5054157;28;20099;-50
2023/03/06 00:34:14;;;;;;;10.48;8.43;;;;;;;;;;5054658;28;20040;-52
2023/03/06 00:36:40;;;;;;;12.68;8.63;;;;;;;;;;5054203;28;20029;-50
2023/03/06 00:39:07;;;;;;;10.25;7.78;;;;;;;;;;5054325;28;20025;-51
2023/03/06 00:41:32;;;;;;;14.32;9.00;;;;;;;;;;5054521;28;20036;-52
2023/03/06 00:43:58;;;;;;;10.63;8.27;;;;;;;;;;5053402;28;20029;-51
2023/03/06 00:46:24;;;;;;;12.57;8.88;;;;;;;;;;5053888;28;20067;-52
2023/03/06 00:48:50;;;;;;;15.73;9.30;;;;;;;;;;5053905;28;20147;-52
2023/03/06 00:51:18;;;;;;;14.43;9.80;;;;;;;;;;5053885;28;20025;-53
2023/03/06 00:53:44;;;;;;;15.07;9.27;;;;;;;;;;5053631;28;20439;-50
2023/03/06 00:56:10;;;;;;;12.90;7.93;;;;;;;;;;5053968;28;20039;-53
2023/03/06 00:58:36;;;;;;;13.82;8.82;;;;;;;;;;5053623;28;20115;-50
2023/03/06 01:01:02;;;;;;;14.30;9.50;;;;;;;;;;5052261;28;20527;-51
2023/03/06 01:03:28;;;;;;;11.93;8.73;;;;;;;;;;5053522;28;20035;-51
2023/03/06 01:05:54;;;;;;;15.38;11.23;;;;;;;;;;5054152;28;20032;-54
2023/03/06 01:08:20;;;;;;;11.07;9.13;;;;;;;;;;5053487;28;20083;-55
2023/03/06 01:10:46;;;;;;;14.88;9.43;;;;;;;;;;5053758;28;20366;-49
2023/03/06 01:13:12;;;;;;;11.75;8.82;;;;;;;;;;5053297;28;20080;-50
2023/03/06 01:15:38;;;;;;;16.30;9.90;;;;;;;;;;5055089;28;20032;-54
2023/03/06 01:18:04;;;;;;;13.93;8.88;;;;;;;;;;5057521;28;20032;-53
2023/03/06 01:20:30;;;;;;;13.73;9.53;;;;;;;;;;5057789;28;20032;-50
2023/03/06 01:22:56;;;;;;;16.10;8.93;;;;;;;;;;5057476;28;20025;-51
2023/03/06 01:25:23;;;;;;;12.85;9.52;;;;;;;;;;5057427;28;20028;-50
2023/03/06 01:27:49;;;;;;;13.57;10.37;;;;;;;;;;5057658;28;20486;-50
2023/03/06 01:30:15;;;;;;;15.30;9.30;;;;;;;;;;5057136;28;20053;-52
2023/03/06 01:32:41;;;;;;;13.65;9.93;;;;;;;;;;5057117;28;20025;-50
2023/03/06 01:35:07;;;;;;;9.77;7.53;;;;;;;;;;5057562;28;20147;-50
2023/03/06 01:37:35;;;;;;;12.40;8.40;;;;;;;;;;5057207;28;20029;-54
2023/03/06 01:40:01;;;;;;;11.93;7.57;;;;;;;;;;5056904;28;20107;-55
2023/03/06 01:42:27;;;;;;;14.80;10.43;;;;;;;;;;5057049;28;20068;-56
2023/03/06 01:45:05;;;;;;;10.25;8.52;;;;;;;;;;5057391;28;20418;-54
2023/03/06 01:47:31;;;;;;;11.52;7.75;;;;;;;;;;5056937;28;20075;-56
2023/03/06 01:49:58;;;;;;;11.55;8.77;;;;;;;;;;5056685;28;20479;-53
2023/03/06 01:52:27;;;;;;;13.77;10.50;;;;;;;;;;5057137;28;20021;-53
2023/03/06 01:54:55;;;;;;;10.77;7.67;;;;;;;;;;5057272;28;20397;-51
2023/03/06 01:57:25;;;;;;;13.20;7.97;;;;;;;;;;5056385;28;20029;-54
2023/03/06 01:59:53;;;;;;;17.20;9.02;;;;;;;;;;5056726;28;20036;-51
2023/03/06 02:02:19;;;;;;;15.77;9.57;;;;;;;;;;5056630;28;20021;-51
2023/03/06 02:04:45;;;;;;;17.57;9.97;;;;;;;;;;5057164;28;20032;-55
2023/03/06 02:07:12;;;;;;;11.27;7.67;;;;;;;;;;5056412;28;20036;-55
2023/03/06 02:09:38;;;;;;;8.80;6.88;;;;;;;;;;5057091;28;20079;-50
2023/03/06 02:12:12;;;;;;;12.60;6.93;;;;;;;;;;5056887;28;20029;-51
2023/03/06 02:14:38;;;;;;;13.73;8.73;;;;;;;;;;5057081;28;20497;-53
2023/03/06 02:17:04;;;;;;;14.15;8.98;;;;;;;;;;5056688;28;20036;-55
2023/03/06 02:19:34;;;;;;;11.50;8.80;;;;;;;;;;5056099;28;20522;-54
2023/03/06 02:22:00;;;;;;;9.73;7.87;;;;;;;;;;5056223;28;20069;-51
2023/03/06 02:24:49;;;;;;;12.57;8.93;;;;;;;;;;5055884;28;20052;-56
2023/03/06 02:27:16;;;;;;;15.50;7.90;;;;;;;;;;5052909;28;20045;-52
2023/03/06 02:29:43;;;;;;;11.33;7.33;;;;;;;;;;5056208;28;20067;-50
2023/03/06 02:32:09;;;;;;;12.63;8.27;;;;;;;;;;5056206;28;20096;-52
2023/03/06 02:34:38;;;;;;;9.73;7.83;;;;;;;;;;5056339;28;20025;-55
2023/03/06 02:37:08;;;;;;;16.83;8.33;;;;;;;;;;5056522;28;20095;-52
2023/03/06 02:39:36;;;;;;;15.55;7.80;;;;;;;;;;5056310;28;20120;-54
2023/03/06 02:42:02;;;;;;;12.27;7.53;;;;;;;;;;5055990;28;20348;-54
2023/03/06 02:44:28;;;;;;;12.60;9.70;;;;;;;;;;5056019;28;20032;-54
2023/03/06 02:46:54;;;;;;;7.67;6.70;;;;;;;;;;5056166;28;20033;-54
2023/03/06 02:49:20;;;;;;;10.27;6.80;;;;;;;;;;5056183;28;20447;-55
2023/03/06 02:51:46;;;;;;;12.00;7.32;;;;;;;;;;5055858;28;20040;-52
2023/03/06 02:54:12;;;;;;;10.60;7.68;;;;;;;;;;5056087;28;20029;-53
2023/03/06 02:56:38;;;;;;;11.00;7.43;;;;;;;;;;5055909;28;20102;-54
2023/03/06 02:59:04;;;;;;;12.53;8.37;;;;;;;;;;5056154;28;20066;-52
2023/03/06 03:01:30;;;;;;;14.30;7.50;;;;;;;;;;5055502;28;20025;-53
2023/03/06 03:03:56;;;;;;;14.27;7.83;;;;;;;;;;5055400;28;20033;-51
2023/03/06 03:06:22;;;;;;;7.40;6.20;;;;;;;;;;5055912;28;20025;-52
2023/03/06 03:08:47;;;;;;;10.37;6.17;;;;;;;;;;5055210;28;20046;-53
2023/03/06 03:11:13;;;;;;;11.10;8.13;;;;;;;;;;5055255;28;20370;-54
2023/03/06 03:13:39;;;;;;;14.10;8.93;;;;;;;;;;5055258;28;20057;-53
2023/03/06 03:16:12;;;;;;;10.03;7.23;;;;;;;;;;5055556;28;20451;-56
2023/03/06 03:18:38;;;;;;;11.93;7.67;;;;;;;;;;5055258;28;20064;-53
2023/03/06 03:21:08;;;;;;;8.57;7.03;;;;;;;;;;5055226;28;20064;-55
2023/03/06 03:23:34;;;;;;;9.43;7.17;;;;;;;;;;5055206;28;20455;-56
2023/03/06 03:26:07;;;;;;;9.00;7.23;;;;;;;;;;5055751;28;20021;-55
2023/03/06 03:28:33;;;;;;;10.23;7.90;;;;;;;;;;5055300;28;20045;-50
2023/03/06 03:31:02;;;;;;;8.27;7.03;;;;;;;;;;5055775;28;20029;-56
2023/03/06 03:33:28;;;;;;;10.33;6.63;;;;;;;;;;5055003;28;20029;-51
2023/03/06 03:35:57;;;;;;;9.60;7.13;;;;;;;;;;5055502;28;20120;-56
2023/03/06 03:38:23;;;;;;;13.07;8.13;;;;;;;;;;5054730;28;20036;-53
2023/03/06 03:40:49;;;;;;;8.30;6.43;;;;;;;;;;5055043;28;20340;-53
2023/03/06 03:43:15;;;;;;;9.15;6.65;;;;;;;;;;5054780;28;20029;-53
2023/03/06 03:45:41;;;;;;;8.10;7.30;;;;;;;;;;5055569;28;20021;-54
2023/03/06 03:48:07;;;;;;;8.13;5.67;;;;;;;;;;5054619;28;20043;-54
2023/03/06 03:50:33;;;;;;;8.98;7.75;;;;;;;;;;5054646;28;20036;-54
2023/03/06 03:52:59;;;;;;;12.50;8.10;;;;;;;;;;5055140;28;20029;-50
2023/03/06 03:55:25;;;;;;;12.47;7.30;;;;;;;;;;5055146;28;20501;-53
2023/03/06 03:57:51;;;;;;;7.82;6.13;;;;;;;;;;5054306;28;20078;-54
2023/03/06 04:00:18;;;;;;;8.37;6.57;;;;;;;;;;5054384;28;20033;-54
2023/03/06 04:02:44;;;;;;;12.87;7.67;;;;;;;;;;5054377;28;20447;-51
2023/03/06 04:05:11;;;;;;;11.32;6.80;;;;;;;;;;5054771;28;20017;-51
2023/03/06 04:07:38;;;;;;;7.60;6.07;;;;;;;;;;5054767;28;20041;-50
2023/03/06 04:10:05;;;;;;;7.88;5.68;;;;;;;;;;5054206;28;20025;-50
2023/03/06 04:12:31;;;;;;;8.55;6.90;;;;;;;;;;5054407;28;20410;-50
2023/03/06 04:14:57;;;;;;;9.63;5.63;;;;;;;;;;5054770;28;20469;-52
2023/03/06 04:17:23;;;;;;;10.97;5.10;;;;;;;;;;5054611;28;20362;-51
2023/03/06 04:19:49;;;;;;;11.07;6.18;;;;;;;;;;5054080;28;20021;-55
2023/03/06 04:22:14;;;;;;;18.50;7.47;;;;;;;;;;5054133;28;20036;-51
2023/03/06 04:24:40;;;;;;;9.67;5.70;;;;;;;;;;5054306;28;20469;-50
2023/03/06 04:27:06;;;;;;;6.80;5.30;;;;;;;;;;5054035;28;20032;-49
2023/03/06 04:29:32;;;;;;;8.17;5.83;;;;;;;;;;5054516;28;20025;-53
2023/03/06 04:31:58;;;;;;;9.47;5.70;;;;;;;;;;5053944;28;20048;-54
2023/03/06 04:34:24;;;;;;;7.85;5.65;;;;;;;;;;5054030;28;20061;-53
2023/03/06 04:36:50;;;;;;;9.00;6.00;;;;;;;;;;5053959;28;20087;-54
2023/03/06 04:39:16;;;;;;;7.90;5.63;;;;;;;;;;5053857;28;20413;-51
2023/03/06 04:41:42;;;;;;;11.40;6.23;;;;;;;;;;5054385;28;20029;-55
2023/03/06 04:44:08;;;;;;;9.93;4.83;;;;;;;;;;5053892;28;20024;-52
2023/03/06 04:46:34;;;;;;;7.50;5.77;;;;;;;;;;5053783;28;20029;-54
2023/03/06 04:49:01;;;;;;;8.43;6.30;;;;;;;;;;5054020;28;20025;-49
2023/03/06 04:51:27;;;;;;;6.37;5.70;;;;;;;;;;5053778;28;20094;-51
2023/03/06 04:53:53;;;;;;;6.93;5.27;;;;;;;;;;5054044;28;20029;-50
2023/03/06 04:56:18;;;;;;;8.60;5.77;;;;;;;;;;5053717;28;20036;-51
2023/03/06 04:58:45;;;;;;;15.32;5.15;;;;;;;;;;5054206;28;20025;-52
2023/03/06 05:01:11;;;;;;;10.47;5.00;;;;;;;;;;5053963;28;20112;-53
2023/03/06 05:03:37;;;;;;;10.10;5.80;;;;;;;;;;5054330;28;20036;-49
2023/03/06 05:06:03;;;;;;;9.50;4.90;;;;;;;;;;5053683;28;20036;-50
2023/03/06 05:08:29;;;;;;;5.90;4.43;;;;;;;;;;5053238;28;20459;-50
2023/03/06 05:10:59;;;;;;;6.27;5.10;;;;;;;;;;5053630;28;20033;-51
2023/03/06 05:13:26;;;;;;;7.50;5.85;;;;;;;;;;5053637;28;20041;-53
2023/03/06 05:15:52;;;;;;;11.07;5.20;;;;;;;;;;5053505;28;20132;-54
2023/03/06 05:18:18;;;;;;;10.85;4.60;;;;;;;;;;5054328;28;20068;-55
2023/03/06 05:20:44;;;;;;;6.80;5.30;;;;;;;;;;5053527;28;20025;-52
2023/03/06 05:23:11;;;;;;;5.63;4.17;;;;;;;;;;5053466;28;20021;-53
2023/03/06 05:25:40;;;;;;;9.77;5.93;;;;;;;;;;5053636;28;20120;-49
2023/03/06 05:28:06;;;;;;;6.65;5.22;;;;;;;;;;5053048;28;20467;-52
2023/03/06 05:30:32;;;;;;;9.50;5.30;;;;;;;;;;5053658;28;20040;-51
2023/03/06 05:32:59;;;;;;;11.43;6.30;;;;;;;;;;5053855;28;20350;-49
2023/03/06 05:35:25;;;;;;;9.23;5.20;;;;;;;;;;5053914;28;20029;-51
2023/03/06 05:37:50;;;;;;;8.43;6.87;;;;;;;;;;5053307;28;20025;-49
2023/03/06 05:40:17;;;;;;;9.45;6.20;;;;;;;;;;5053305;28;20025;-49
2023/03/06 05:42:43;;;;;;;6.80;5.63;;;;;;;;;;5053200;28;20021;-49
2023/03/06 05:45:09;;;;;;;9.73;5.32;;;;;;;;;;5053428;28;20032;-53
2023/03/06 05:47:35;;;;;;;8.90;5.68;;;;;;;;;;5053113;28;20029;-51
2023/03/06 05:50:01;;;;;;;7.93;5.97;;;;;;;;;;5053222;28;20033;-50
2023/03/06 05:52:27;;;;;;;8.67;4.83;;;;;;;;;;5053144;28;20490;-50
2023/03/06 05:54:54;;;;;;;10.38;5.05;;;;;;;;;;5053690;28;20036;-51
2023/03/06 05:57:20;;;;;;;7.00;5.23;;;;;;;;;;5053293;28;20059;-49
2023/03/06 05:59:47;;;;;;;11.20;5.93;;;;;;;;;;5053346;28;20459;-51
2023/03/06 06:02:13;;;;;;;6.53;4.68;;;;;;;;;;5055558;28;20033;-54
2023/03/06 06:04:38;;;;;;;8.50;5.03;;;;;;;;;;5057424;28;20024;-49
2023/03/06 06:07:05;;;;;;;9.73;4.87;;;;;;;;;;5056876;28;20477;-49
2023/03/06 06:09:31;;;;;;;5.83;4.47;;;;;;;;;;5056680;28;20159;-54
2023/03/06 06:12:01;;;;;;;6.38;4.82;;;;;;;;;;5056215;28;20482;-51
2023/03/06 06:14:32;;;;;;;11.57;7.22;;;;;;;;;;5056440;28;20056;-53
2023/03/06 06:16:58;;;;;;;8.70;5.57;;;;;;;;;;5056463;28;20382;-52
2023/03/06 06:19:24;;;;;;;22.53;6.60;;;;;;;;;;5056571;28;20025;-51
2023/03/06 06:21:52;;;;;;;8.47;4.87;;;;;;;;;;5056455;28;20425;-50
2023/03/06 06:24:19;;;;;;;9.67;5.27;;;;;;;;;;5056197;28;20025;-53
2023/03/06 06:26:45;;;;;;;8.67;5.53;;;;;;;;;;5055934;28;20052;-50
2023/03/06 06:29:12;;;;;;;6.63;4.90;;;;;;;;;;5056001;28;20095;-50
2023/03/06 06:31:38;;;;;;;9.13;5.23;;;;;;;;;;5056647;28;20128;-50
2023/03/06 06:34:05;;;;;;;8.33;5.13;;;;;;;;;;5056220;28;20029;-53
2023/03/06 06:36:31;;;;;;;8.30;6.70;;;;;;;;;;5056589;28;20021;-49
2023/03/06 06:38:58;;;;;;;8.53;6.40;;;;;;;;;;5054697;28;20040;-53
2023/03/06 06:41:24;;;;;;;15.47;7.00;;;;;;;;;;5055951;28;20028;-51
2023/03/06 06:43:50;;;;;;;5.97;4.63;;;;;;;;;;5054892;28;20082;-54
2023/03/06 06:46:16;;;;;;;7.83;4.53;;;;;;;;;;5055830;28;20398;-49
2023/03/06 06:48:42;;;;;;;9.00;5.13;;;;;;;;;;5056062;28;20037;-51
2023/03/06 06:51:07;;;;;;;7.70;5.43;;;;;;;;;;5055906;28;20178;-49
2023/03/06 06:53:33;;;;;;;11.60;7.40;;;;;;;;;;5055777;28;20032;-53
2023/03/06 06:55:59;;;;;;;9.77;5.03;;;;;;;;;;5056265;28;20443;-56
2023/03/06 06:58:25;;;;;;;8.97;5.77;;;;;;;;;;5055877;28;20064;-49
2023/03/06 07:00:51;;;;;;;6.90;5.60;;;;;;;;;;5056332;28;20025;-48
2023/03/06 07:03:17;;;;;;;9.10;5.50;;;;;;;;;;5056047;28;20404;-50
2023/03/06 07:05:43;;;;;;;9.63;7.53;;;;;;;;;;5056224;28;20056;-50
2023/03/06 07:08:09;;;;;;;19.43;7.23;;;;;;;;;;5055256;28;20028;-48
2023/03/06 07:10:38;;;;;;;8.27;4.68;;;;;;;;;;5055477;28;20029;-53
2023/03/06 07:13:04;;;;;;;7.73;5.90;;;;;;;;;;5054398;28;20056;-51
2023/03/06 07:15:30;;;;;;;8.00;4.87;;;;;;;;;;5055700;28;20017;-49
2023/03/06 07:17:56;;;;;;;7.75;6.05;;;;;;;;;;5055830;28;20124;-50
2023/03/06 07:20:22;;;;;;;13.57;5.33;;;;;;;;;;5055296;28;20021;-50
2023/03/06 07:22:48;;;;;;;15.95;5.50;;;;;;;;;;5055681;28;20049;-49
2023/03/06 07:25:14;;;;;;;8.67;6.30;;;;;;;;;;5055475;28;20076;-49
2023/03/06 07:27:40;;;;;;;10.38;5.38;;;;;;;;;;5055413;28;20029;-49
2023/03/06 07:30:07;;;;;;;5.33;4.23;;;;;;;;;;5055142;28;20052;-50
2023/03/06 07:32:32;;;;;;;7.80;6.17;;;;;;;;;;5055079;28;20060;-48
2023/03/06 07:34:58;;;;;;;8.70;5.13;;;;;;;;;;5054817;28;20032;-48
2023/03/06 07:37:24;;;;;;;10.93;7.07;;;;;;;;;;5054916;28;20150;-49
2023/03/06 07:39:50;;;;;;;10.40;5.80;;;;;;;;;;5054845;28;20036;-47
2023/03/06 07:42:16;;;;;;;18.63;7.23;;;;;;;;;;5055217;28;20036;-49
2023/03/06 07:44:42;;;;;;;8.67;6.90;;;;;;;;;;5055389;28;20103;-49
2023/03/06 07:47:08;;;;;;;8.77;5.57;;;;;;;;;;5054982;28;20036;-50
2023/03/06 07:49:34;;;;;;;11.90;7.23;;;;;;;;;;5054669;28;20029;-51
2023/03/06 07:52:00;;;;;;;6.73;5.30;;;;;;;;;;5054553;28;20017;-48
2023/03/06 07:54:29;;;;;;;6.63;5.20;;;;;;;;;;5053601;28;20043;-51
2023/03/06 07:56:55;;;;;;;11.38;8.20;;;;;;;;;;5054161;28;20116;-50
2023/03/06 07:59:21;;;;;;;9.43;5.95;;;;;;;;;;5054932;28;20430;-53
2023/03/06 08:01:47;;;;;;;11.90;6.50;;;;;;;;;;5054214;28;20039;-54
2023/03/06 08:04:13;;;;;;;7.28;5.47;;;;;;;;;;5054392;28;20417;-53
2023/03/06 08:06:39;;;;;;;9.65;6.30;;;;;;;;;;5054902;28;20394;-53
2023/03/06 08:09:05;;;;;;;7.20;5.60;;;;;;;;;;5054127;28;20033;-54
2023/03/06 08:11:32;;;;;;;8.45;4.40;;;;;;;;;;5054122;28;20028;-51
2023/03/06 08:13:58;;;;;;;8.68;6.57;;;;;;;;;;5053650;28;20057;-54
2023/03/06 08:16:26;;;;;;;8.70;5.20;;;;;;;;;;5053871;28;20040;-51
2023/03/06 08:18:52;;;;;;;5.15;3.78;;;;;;;;;;5054245;28;20126;-49
2023/03/06 08:21:20;;;;;;;7.57;5.28;;;;;;;;;;5054274;28;20127;-53
2023/03/06 08:23:46;;;;;;;8.23;6.15;;;;;;;;;;5053572;28;20021;-51
2023/03/06 08:26:14;;;;;;;6.82;4.40;;;;;;;;;;5054531;28;20469;-50
2023/03/06 08:28:40;;;;;;;8.27;3.90;;;;;;;;;;5053989;28;20029;-48
2023/03/06 08:31:10;;;;;;;7.55;5.20;;;;;;;;;;5054367;28;20033;-48
2023/03/06 08:33:37;;;;;;;9.35;4.85;;;;;;;;;;5054072;28;20029;-48
2023/03/06 08:36:03;;;;;;;8.00;4.10;;;;;;;;;;5054559;28;20051;-53
2023/03/06 08:38:29;;;;;;;6.28;4.32;;;;;;;;;;5054508;28;20079;-50
2023/03/06 08:40:55;;;;;;;7.72;4.85;;;;;;;;;;5054422;28;20439;-52
2023/03/06 08:43:21;;;;;;;5.28;4.22;;;;;;;;;;5053911;28;20056;-52
2023/03/06 08:45:53;;;;;;;6.72;4.20;;;;;;;;;;5054256;28;20028;-50
2023/03/06 08:48:20;;;;;;;4.38;3.30;;;;;;;;;;5053764;28;20485;-49
2023/03/06 08:50:46;;;;;;;7.50;3.65;;;;;;;;;;5054631;28;20025;-52
2023/03/06 08:53:12;;;;;;;6.70;4.70;;;;;;;;;;5053822;28;20021;-48
2023/03/06 08:55:38;;;;;;;8.07;5.82;;;;;;;;;;5054045;28;20036;-54
2023/03/06 08:58:05;;;;;;;4.97;3.17;;;;;;;;;;5054024;28;20032;-50
2023/03/06 09:00:31;;;;;;;6.85;3.85;;;;;;;;;;5052701;28;20025;-49
2023/03/06 09:02:57;;;;;;;7.85;3.92;;;;;;;;;;5054219;28;20359;-52
2023/03/06 09:05:23;;;;;;;6.00;4.03;;;;;;;;;;5053966;28;20029;-50
2023/03/06 09:07:49;;;;;;;7.93;4.78;;;;;;;;;;5053499;28;20518;-50
2023/03/06 09:10:16;;;;;;;6.60;4.50;;;;;;;;;;5053738;28;20040;-53
2023/03/06 09:12:42;;;;;;;7.05;4.75;;;;;;;;;;5053582;28;20057;-55
2023/03/06 09:15:09;;;;;;;8.40;3.97;;;;;;;;;;5053433;28;20116;-52
2023/03/06 09:17:35;;;;;;;5.70;4.72;;;;;;;;;;5053515;28;20028;-52
2023/03/06 09:20:01;;;;;;;7.25;3.75;;;;;;;;;;5053898;28;20029;-52
2023/03/06 09:22:27;;;;;;;6.45;3.92;;;;;;;;;;5054022;28;20037;-55
2023/03/06 09:24:53;;;;;;;5.55;4.25;;;;;;;;;;5053428;28;20463;-51
2023/03/06 09:27:19;;;;;;;7.22;4.40;;;;;;;;;;5053676;28;20043;-50
2023/03/06 09:29:45;;;;;;;7.57;5.07;;;;;;;;;;5053555;28;20100;-52
2023/03/06 09:32:11;;;;;;;6.90;4.13;;;;;;;;;;5053419;28;20029;-51
2023/03/06 09:34:37;;;;;;;6.22;4.03;;;;;;;;;;5053816;28;20375;-52
2023/03/06 09:37:03;;;;;;;5.40;3.60;;;;;;;;;;5056189;28;20033;-52
2023/03/06 09:39:29;;;;;;;5.72;3.85;;;;;;;;;;5057296;28;20029;-53
2023/03/06 09:41:57;;;;;;;5.68;3.90;;;;;;;;;;5058014;28;20351;-54
2023/03/06 09:44:30;;;;;;;4.22;3.10;;;;;;;;;;5057066;28;20029;-54
2023/03/06 09:46:59;;;;;;;6.90;4.80;;;;;;;;;;5056986;28;20117;-52
2023/03/06 09:49:28;;;;;;;6.07;3.55;;;;;;;;;;5057001;28;20033;-53
2023/03/06 09:51:56;;;;;;;8.75;3.25;;;;;;;;;;5057264;28;20036;-54
2023/03/06 09:54:32;;;;;;;5.53;4.13;;;;;;;;;;5056931;28;20165;-55
2023/03/06 09:56:58;;;;;;;8.30;4.15;;;;;;;;;;5057266;28;20363;-53
2023/03/06 09:59:24;;;;;;;7.43;4.32;;;;;;;;;;5056911;28;20025;-53
2023/03/06 10:02:02;;;;;;;6.30;4.13;;;;;;;;;;5056872;28;20044;-51
2023/03/06 10:04:28;;;;;;;6.18;4.18;;;;;;;;;;5056535;28;20021;-52
2023/03/06 10:06:56;;;;;;;4.97;3.55;;;;;;;;;;5057529;28;20075;-53
2023/03/06 10:09:25;;;;;;;6.03;2.90;;;;;;;;;;5056933;28;20348;-55
2023/03/06 10:11:54;;;;;;;6.35;4.53;;;;;;;;;;5057006;28;20025;-55
2023/03/06 10:14:20;;;;;;;5.57;2.80;;;;;;;;;;5057127;28;20076;-51
2023/03/06 10:16:46;;;;;;;5.47;3.42;;;;;;;;;;5056801;28;20029;-49
2023/03/06 10:19:15;;;;;;;5.65;3.10;;;;;;;;;;5056468;28;20025;-54
2023/03/06 10:21:59;;;;;;;5.22;3.70;;;;;;;;;;5056462;28;20478;-51
2023/03/06 10:24:31;;;;;;;6.45;4.22;;;;;;;;;;5056368;28;20040;-55
2023/03/06 10:27:02;;;;;;;5.93;3.58;;;;;;;;;;5056215;28;20375;-53
2023/03/06 10:29:28;;;;;;;;;;;;;;;;;;5056750;28;20036;-52
2023/03/06 10:32:01;;;;;;;6.18;4.82;;;;;;;;;;5056234;28;19905;-53
2023/03/06 10:34:32;;;;;;;6.18;3.92;;;;;;;;;;5056023;28;20021;-53
2023/03/06 10:37:01;;;;;;;5.75;3.67;;;;;;;;;;5056805;28;20039;-53
2023/03/06 10:39:29;;;;;;;3.95;3.13;;;;;;;;;;5056131;28;20474;-51
2023/03/06 10:41:55;;;;;;;5.53;3.60;;;;;;;;;;5056076;28;20055;-52
2023/03/06 10:44:22;;;;;;;6.57;4.57;;;;;;;;;;5055991;28;20116;-55
2023/03/06 10:46:50;;;;;;;5.93;4.13;;;;;;;;;;5056097;28;20382;-51
2023/03/06 10:49:31;;;;;;;5.97;3.65;;;;;;;;;;5055956;28;20029;-57
2023/03/06 10:51:57;;;;;;;;;;;;;;;;;;5056276;28;20037;-56
2023/03/06 10:54:23;;;;;;;20.38;4.07;;;;;;;;;;5056409;28;20246;-56
2023/03/06 10:56:49;;;;;;;7.93;5.32;;;;;;;;;;5055885;28;20031;-51
2023/03/06 10:59:16;;;;;;;6.28;3.65;;;;;;;;;;5055790;28;20025;-54
2023/03/06 11:01:44;;;;;;;5.60;3.05;;;;;;;;;;5055536;28;20053;-55
2023/03/06 11:04:24;;;;;;;6.05;3.60;;;;;;;;;;5056247;28;20047;-56
2023/03/06 11:07:06;;;;;;;4.70;3.40;;;;;;;;;;5055669;28;20029;-53
2023/03/06 11:09:32;;;;;;;5.65;3.80;;;;;;;;;;5055565;28;20025;-56
2023/03/06 11:12:18;;;;;;;10.63;5.97;;;;;;;;;;5055514;28;20094;-55
2023/03/06 11:14:44;;;;;;;5.57;3.28;;;;;;;;;;5055809;28;20036;-56
2023/03/06 11:17:26;;;;;;;5.88;3.92;;;;;;;;;;5055830;28;20442;-54
2023/03/06 11:20:06;;;;;;;4.03;2.92;;;;;;;;;;5056542;28;20044;-53
2023/03/06 11:22:32;;;;;;;4.28;2.83;;;;;;;;;;5055054;28;20491;-55
2023/03/06 11:24:58;;;;;;;5.55;3.42;;;;;;;;;;5055950;28;20028;-56
2023/03/06 11:27:35;;;;;;;8.55;5.13;;;;;;;;;;5055115;28;20033;-54
2023/03/06 11:30:14;;;;;;;4.30;3.40;;;;;;;;;;5055976;28;20029;-54
2023/03/06 11:32:40;;;;;;;5.05;3.78;;;;;;;;;;5055722;28;20366;-56
2023/03/06 11:35:09;;;;;;;7.63;4.30;;;;;;;;;;5055533;28;20025;-52
2023/03/06 11:37:45;;;;;;;8.15;4.65;;;;;;;;;;5055509;28;20036;-54
2023/03/06 11:40:11;;;;;;;6.68;3.83;;;;;;;;;;5054975;28;20025;-50
2023/03/06 11:42:40;;;;;;;7.00;4.35;;;;;;;;;;5054906;28;20032;-52
2023/03/06 11:45:16;;;;;;;5.57;4.38;;;;;;;;;;5055506;28;20029;-54
2023/03/06 11:48:08;;;;;;;3.63;2.58;;;;;;;;;;5055074;28;20025;-53
2023/03/06 11:50:44;;;;;;;6.70;3.67;;;;;;;;;;5046287;28;20044;-54
2023/03/06 11:53:30;;;;;;;6.78;4.25;;;;;;;;;;5054711;28;20029;-50
2023/03/06 11:55:56;;;;;;;5.85;3.92;;;;;;;;;;5050565;28;20044;-54
2023/03/06 11:58:41;;;;;;;5.07;4.00;;;;;;;;;;5055130;28;20032;-52
2023/03/06 12:01:07;;;;;;;5.78;3.72;;;;;;;;;;5054274;28;20025;-54
2023/03/06 12:03:33;;;;;;;4.30;3.20;;;;;;;;;;5054526;28;20029;-53
2023/03/06 12:06:08;;;;;;;7.35;5.15;;;;;;;;;;5054472;28;20020;-54
2023/03/06 12:08:52;;;;;;;5.97;3.95;;;;;;;;;;5054046;28;20482;-52
2023/03/06 12:11:20;;;;;;;4.65;3.30;;;;;;;;;;5054466;28;20029;-53
2023/03/06 12:13:46;;;;;;;6.50;3.28;;;;;;;;;;5054713;28;20045;-51
2023/03/06 12:16:23;;;;;;;5.38;4.07;;;;;;;;;;5054554;28;20233;-53
2023/03/06 12:19:07;;;;;;;6.57;4.13;;;;;;;;;;5054065;28;20033;-53
2023/03/06 12:21:39;;;;;;;6.25;3.72;;;;;;;;;;5054130;28;20032;-52
2023/03/06 12:24:05;;;;;;;6.30;3.58;;;;;;;;;;5054509;28;20110;-55
2023/03/06 12:26:31;;;;;;;5.85;3.60;;;;;;;;;;5053971;28;20447;-52
2023/03/06 12:29:10;;;;;;;5.07;3.90;;;;;;;;;;5053907;28;20082;-52
2023/03/06 12:31:54;;;;;;;7.70;3.75;;;;;;;;;;5054493;28;20451;-52
2023/03/06 12:34:39;;;;;;;6.00;4.22;;;;;;;;;;5053859;28;20074;-54
2023/03/06 12:37:20;;;;;;;4.90;3.25;;;;;;;;;;5054116;28;20049;-54
2023/03/06 12:40:05;;;;;;;9.90;4.32;;;;;;;;;;5053524;28;20029;-54
2023/03/06 12:42:41;;;;;;;5.20;2.97;;;;;;;;;;5053674;28;20025;-52
2023/03/06 12:45:09;;;;;;;8.18;4.03;;;;;;;;;;5054585;28;20365;-52
2023/03/06 12:47:40;;;;;;;10.48;4.68;;;;;;;;;;5053954;28;20067;-53
2023/03/06 12:50:07;;;;;;;;;;;;;;;;;;5054131;28;20037;-53
2023/03/06 12:52:33;;;;;;;6.90;4.70;;;;;;;;;;5054076;28;19944;-54
2023/03/06 12:55:00;;;;;;;5.00;3.30;;;;;;;;;;5054034;28;20142;-55
2023/03/06 12:57:26;;;;;;;4.32;3.40;;;;;;;;;;5054153;28;20383;-51
2023/03/06 12:59:53;;;;;;;4.93;3.22;;;;;;;;;;5054312;28;20051;-52
2023/03/06 13:02:55;;;;;;;5.72;3.85;;;;;;;;;;5053453;28;20033;-55
2023/03/06 13:05:26;;;;;;;4.63;3.10;;;;;;;;;;5031182;28;20159;-54
2023/03/06 13:08:01;;;;;;;6.05;4.13;;;;;;;;;;5050348;28;20045;-55
2023/03/06 13:10:27;;;;;;;7.30;4.70;;;;;;;;;;5053789;28;20151;-53
2023/03/06 13:13:00;;;;;;;6.43;4.07;;;;;;;;;;5057382;28;20139;-53
2023/03/06 13:15:29;;;;;;;7.03;3.58;;;;;;;;;;5057672;28;20033;-52
2023/03/06 13:17:56;;;;;;;6.65;3.88;;;;;;;;;;5057605;28;20036;-53
2023/03/06 13:20:28;;;;;;;4.68;3.50;;;;;;;;;;5057629;28;20025;-54
2023/03/06 13:22:54;;;;;;;5.10;3.40;;;;;;;;;;5058375;28;20367;-53
2023/03/06 13:25:19;;;;;;;5.43;3.97;;;;;;;;;;5057572;28;20025;-55
2023/03/06 13:27:51;;;;;;;4.68;3.47;;;;;;;;;;5057100;28;20103;-54
2023/03/06 13:30:20;;;;;;;5.65;3.60;;;;;;;;;;5057025;28;20025;-52
2023/03/06 13:32:48;;;;;;;6.45;3.28;;;;;;;;;;5057240;28;20064;-55
2023/03/06 13:35:31;;;;;;;4.90;3.08;;;;;;;;;;5057911;28;20035;-52
2023/03/06 13:37:58;;;;;;;4.50;3.40;;;;;;;;;;5057316;28;20087;-55
2023/03/06 13:40:26;;;;;;;8.85;3.97;;;;;;;;;;5057588;28;20025;-55
2023/03/06 13:42:52;;;;;;;6.78;3.35;;;;;;;;;;5057489;28;20025;-55
2023/03/06 13:45:37;;;;;;;5.50;3.67;;;;;;;;;;5057719;28;20442;-52
2023/03/06 13:48:04;;;;;;;10.40;3.78;;;;;;;;;;5057099;28;20029;-49
2023/03/06 13:50:30;;;;;;;5.38;3.40;;;;;;;;;;5056774;28;20032;-51
2023/03/06 13:53:02;;;;;;;4.70;3.22;;;;;;;;;;5056864;28;20036;-54
2023/03/06 13:55:54;;;;;;;7.03;3.80;;;;;;;;;;5057136;28;20029;-52
2023/03/06 13:58:31;;;;;;;6.82;4.45;;;;;;;;;;5048342;28;20379;-52
2023/03/06 14:01:07;;;;;;;6.60;4.18;;;;;;;;;;5057431;28;20029;-51
2023/03/06 14:03:51;;;;;;;5.50;3.35;;;;;;;;;;5056942;28;20029;-52
2023/03/06 14:06:40;;;;;;;5.32;2.70;;;;;;;;;;5056423;28;20111;-52
2023/03/06 14:09:07;;;;;;;3.58;2.70;;;;;;;;;;5057037;28;20029;-54
2023/03/06 14:11:34;;;;;;;4.72;3.58;;;;;;;;;;5056611;28;20036;-51
2023/03/06 14:14:00;;;;;;;4.38;2.92;;;;;;;;;;5056340;28;20045;-53
2023/03/06 14:16:27;;;;;;;6.43;3.30;;;;;;;;;;5056324;28;20368;-50
2023/03/06 14:18:55;;;;;;;5.22;3.80;;;;;;;;;;5057002;28;20033;-49
2023/03/06 14:21:25;;;;;;;5.00;4.03;;;;;;;;;;5056403;28;20146;-51
2023/03/06 14:24:01;;;;;;;3.92;2.88;;;;;;;;;;5057014;28;20029;-53
2023/03/06 14:26:31;;;;;;;15.88;3.78;;;;;;;;;;5056769;28;20029;-49
2023/03/06 14:29:01;;;;;;;6.80;3.90;;;;;;;;;;5056469;28;20025;-52
2023/03/06 14:31:28;;;;;;;8.00;3.45;;;;;;;;;;5056776;28;20029;-49
2023/03/06 14:33:55;;;;;;;4.78;2.90;;;;;;;;;;5055997;28;20045;-55
2023/03/06 14:36:23;;;;;;;3.88;2.65;;;;;;;;;;5056644;28;20025;-48
2023/03/06 14:38:54;;;;;;;7.75;4.43;;;;;;;;;;5056060;28;20123;-50
2023/03/06 14:41:24;;;;;;;5.03;3.83;;;;;;;;;;5056219;28;20043;-55
2023/03/06 14:43:50;;;;;;;5.32;3.28;;;;;;;;;;5056076;28;20481;-54
2023/03/06 14:46:19;;;;;;;5.15;3.88;;;;;;;;;;5056790;28;20029;-53